createdAt,value
2023-03-12T00:00:11.497Z,81.50
2023-03-12T00:02:38.892Z,81.80
2023-03-12T00:05:07.035Z,82.10
2023-03-12T00:07:36.719Z,82.30
2023-03-12T00:10:05.793Z,82.70
2023-03-12T00:12:33.173Z,83.30
2023-03-12T00:15:01.671Z,83.60
2023-03-12T00:17:30.406Z,83.60
2023-03-12T00:19:57.852Z,83.60
2023-03-12T00:22:25.999Z,83.50
2023-03-12T00:24:57.127Z,83.50
2023-03-12T00:27:25.979Z,83.10
2023-03-12T00:29:53.860Z,82.60
2023-03-12T00:32:21.676Z,82.70
2023-03-12T00:34:54.128Z,82.70
2023-03-12T00:37:22.297Z,82.60
2023-03-12T00:39:49.578Z,82.70
2023-03-12T00:42:17.134Z,82.80
2023-03-12T00:44:44.603Z,82.80
2023-03-12T00:47:13.848Z,83.20
2023-03-12T00:49:41.378Z,83.50
2023-03-12T00:52:08.769Z,84.10
2023-03-12T00:54:36.073Z,84.40
2023-03-12T00:57:03.645Z,84.80
2023-03-12T00:59:31.323Z,85.20
2023-03-12T01:01:58.837Z,85.90
2023-03-12T01:04:26.148Z,86.20
2023-03-12T01:06:55.103Z,86.70
2023-03-12T01:09:22.459Z,87.20
2023-03-12T01:11:52.052Z,87.90
2023-03-12T01:14:19.443Z,88.20
2023-03-12T01:16:48.843Z,88.40
2023-03-12T01:19:16.781Z,88.90
2023-03-12T01:21:44.096Z,89.20
2023-03-12T01:24:11.477Z,89.50
2023-03-12T01:26:38.754Z,89.90
2023-03-12T01:29:06.084Z,90.20
2023-03-12T01:31:33.680Z,90.40
2023-03-12T01:34:01.014Z,90.50
2023-03-12T01:36:30.900Z,88.90
2023-03-12T01:38:59.839Z,86.60
2023-03-12T01:41:32.619Z,83.90
2023-03-12T01:44:03.825Z,82.20
2023-03-12T01:46:46.189Z,80.70
2023-03-12T01:49:32.145Z,80.50
2023-03-12T01:52:06.037Z,81.80
2023-03-12T01:55:00.479Z,83.30
2023-03-12T01:57:35.800Z,84.40
2023-03-12T02:00:14.361Z,85.50
2023-03-12T02:02:45.011Z,86.40
2023-03-12T02:05:45.271Z,86.70
2023-03-12T02:08:15.168Z,86.90
2023-03-12T02:10:42.658Z,86.40
2023-03-12T02:13:11.434Z,85.60
2023-03-12T02:15:43.620Z,85.30
2023-03-12T02:18:16.351Z,84.70
2023-03-12T02:20:55.501Z,84.20
2023-03-12T02:23:38.771Z,83.50
2023-03-12T02:26:07.446Z,82.80
2023-03-12T02:28:43.154Z,82.40
2023-03-12T02:31:16.008Z,82.40
2023-03-12T02:33:43.637Z,82.10
2023-03-12T02:36:11.246Z,82.30
2023-03-12T02:38:46.842Z,82.20
2023-03-12T02:41:27.568Z,82.20
2023-03-12T02:44:03.835Z,82.40
2023-03-12T02:46:42.883Z,82.50
2023-03-12T02:49:12.768Z,82.40
2023-03-12T02:51:41.794Z,82.30
2023-03-12T02:54:11.394Z,82.10
2023-03-12T02:56:39.932Z,81.90
2023-03-12T02:59:08.178Z,81.90
2023-03-12T03:01:38.879Z,81.80
2023-03-12T03:04:07.669Z,81.60
2023-03-12T03:06:37.525Z,81.70
2023-03-12T03:09:05.640Z,81.80
2023-03-12T03:11:33.029Z,82.00
2023-03-12T03:14:04.513Z,81.90
2023-03-12T03:16:32.471Z,82.00
2023-03-12T03:18:59.890Z,81.90
2023-03-12T03:21:27.333Z,81.70
2023-03-12T03:23:54.619Z,81.60
2023-03-12T03:26:24.236Z,81.00
2023-03-12T03:28:52.630Z,80.80
2023-03-12T03:31:20.399Z,80.60
2023-03-12T03:33:48.673Z,80.20
2023-03-12T03:36:16.665Z,80.10
2023-03-12T03:38:52.825Z,80.00
2023-03-12T03:41:21.152Z,80.00
2023-03-12T03:43:49.263Z,79.90
2023-03-12T03:46:19.527Z,80.40
2023-03-12T03:48:52.197Z,80.40
2023-03-12T03:51:20.861Z,80.30
2023-03-12T03:53:51.737Z,80.30
2023-03-12T03:56:19.964Z,80.10
2023-03-12T03:58:50.250Z,80.10
2023-03-12T04:01:20.180Z,79.90
2023-03-12T04:03:48.442Z,79.80
2023-03-12T04:06:15.757Z,79.60
2023-03-12T04:08:43.360Z,79.70
2023-03-12T04:11:19.861Z,79.80
2023-03-12T04:13:48.080Z,80.20
2023-03-12T04:16:18.828Z,80.30
2023-03-12T04:18:47.361Z,80.30
2023-03-12T04:21:17.529Z,80.40
2023-03-12T04:23:45.784Z,80.50
2023-03-12T04:26:14.478Z,80.70
2023-03-12T04:28:41.793Z,81.00
2023-03-12T04:31:11.776Z,81.00
2023-03-12T04:33:45.110Z,81.10
2023-03-12T04:36:13.757Z,81.30
2023-03-12T04:38:44.189Z,80.80
2023-03-12T04:41:15.787Z,80.50
2023-03-12T04:43:50.907Z,80.50
2023-03-12T04:46:19.626Z,80.00
2023-03-12T04:48:47.199Z,79.40
2023-03-12T04:51:15.895Z,78.80
2023-03-12T04:53:43.760Z,77.80
2023-03-12T04:56:13.532Z,77.40
2023-03-12T04:58:42.071Z,77.30
2023-03-12T05:01:21.947Z,77.40
2023-03-12T05:03:49.558Z,77.20
2023-03-12T05:06:17.509Z,77.40
2023-03-12T05:08:45.092Z,77.80
2023-03-12T05:11:13.142Z,77.20
2023-03-12T05:13:40.473Z,76.50
2023-03-12T05:16:08.294Z,76.50
2023-03-12T05:18:35.921Z,76.50
2023-03-12T05:21:15.542Z,76.30
2023-03-12T05:23:43.321Z,76.00
2023-03-12T05:26:19.112Z,75.80
2023-03-12T05:28:47.798Z,75.70
2023-03-12T05:31:17.549Z,75.80
2023-03-12T05:33:46.136Z,78.70
2023-03-12T05:36:14.707Z,80.80
2023-03-12T05:38:44.338Z,82.20
2023-03-12T05:41:25.914Z,83.00
2023-03-12T05:43:58.187Z,82.70
2023-03-12T05:46:28.865Z,81.30
2023-03-12T05:48:56.567Z,79.90
2023-03-12T05:51:28.655Z,79.30
2023-03-12T05:53:56.124Z,79.50
2023-03-12T05:56:25.383Z,79.60
2023-03-12T05:58:52.826Z,80.10
2023-03-12T06:01:25.010Z,80.30
2023-03-12T06:03:54.470Z,79.60
2023-03-12T06:06:23.356Z,77.70
2023-03-12T06:08:52.133Z,76.20
2023-03-12T06:11:19.452Z,75.20
2023-03-12T06:13:46.879Z,74.20
2023-03-12T06:16:23.205Z,73.00
2023-03-12T06:18:54.183Z,72.10
2023-03-12T06:21:24.423Z,71.20
2023-03-12T06:23:52.833Z,70.60
2023-03-12T06:26:46.168Z,70.10
2023-03-12T06:29:13.661Z,69.60
2023-03-12T06:31:42.423Z,69.20
2023-03-12T06:34:13.765Z,69.00
2023-03-12T06:36:41.117Z,69.30
2023-03-12T06:39:09.858Z,69.70
2023-03-12T06:41:37.292Z,70.50
2023-03-12T06:44:06.655Z,71.20
2023-03-12T06:46:35.904Z,72.10
2023-03-12T06:49:03.325Z,72.90
2023-03-12T06:51:30.718Z,73.30
2023-03-12T06:53:58.026Z,73.70
2023-03-12T06:56:25.464Z,74.10
2023-03-12T06:58:52.960Z,74.50
2023-03-12T07:01:20.499Z,75.00
2023-03-12T07:03:47.894Z,75.30
2023-03-12T07:06:22.816Z,76.00
2023-03-12T07:08:50.743Z,76.00
2023-03-12T07:11:18.534Z,75.70
2023-03-12T07:13:45.996Z,75.40
2023-03-12T07:16:13.556Z,74.50
2023-03-12T07:18:41.090Z,74.20
2023-03-12T07:21:08.438Z,73.60
2023-03-12T07:23:35.837Z,73.30
2023-03-12T07:26:05.855Z,72.90
2023-03-12T07:28:33.351Z,72.00
2023-03-12T07:31:04.755Z,71.80
2023-03-12T07:33:32.733Z,70.90
2023-03-12T07:36:00.439Z,70.90
2023-03-12T07:38:28.294Z,69.80
2023-03-12T07:40:57.761Z,68.90
2023-03-12T07:43:25.558Z,68.40
2023-03-12T07:45:55.269Z,66.10
2023-03-12T07:48:22.699Z,65.50
2023-03-12T07:50:50.023Z,65.30
2023-03-12T07:53:17.882Z,64.20
2023-03-12T07:55:46.820Z,62.80
2023-03-12T07:58:15.911Z,61.70
2023-03-12T08:00:43.537Z,61.00
2023-03-12T08:03:11.124Z,60.80
2023-03-12T08:05:38.931Z,59.30
2023-03-12T08:08:06.637Z,58.70
2023-03-12T08:10:33.996Z,57.40
2023-03-12T08:13:01.294Z,56.20
2023-03-12T08:15:28.710Z,55.40
2023-03-12T08:17:55.978Z,54.90
2023-03-12T08:20:23.277Z,53.90
2023-03-12T08:22:50.663Z,53.90
2023-03-12T08:25:18.767Z,53.80
2023-03-12T08:27:46.192Z,53.10
2023-03-12T08:30:14.705Z,53.30
2023-03-12T08:32:42.665Z,53.20
2023-03-12T08:35:10.620Z,53.40
2023-03-12T08:37:37.942Z,52.70
2023-03-12T08:40:13.391Z,52.60
2023-03-12T08:42:45.079Z,52.30
2023-03-12T08:45:14.543Z,51.90
2023-03-12T08:47:42.393Z,52.40
2023-03-12T08:50:12.488Z,51.60
2023-03-12T08:52:40.271Z,51.40
2023-03-12T08:55:07.885Z,51.50
2023-03-12T08:57:35.210Z,51.30
2023-03-12T09:00:05.650Z,51.70
2023-03-12T09:02:33.003Z,51.80
2023-03-12T09:05:00.290Z,50.70
2023-03-12T09:07:27.710Z,51.30
2023-03-12T09:09:55.839Z,51.40
2023-03-12T09:12:23.806Z,49.40
2023-03-12T09:15:07.738Z,48.90
2023-03-12T09:17:35.436Z,49.80
2023-03-12T09:20:07.033Z,50.50
2023-03-12T09:22:37.084Z,50.40
2023-03-12T09:25:10.288Z,50.50
2023-03-12T09:27:45.734Z,50.70
2023-03-12T09:30:18.338Z,49.90
2023-03-12T09:32:46.120Z,50.60
2023-03-12T09:35:15.260Z,50.90
2023-03-12T09:37:42.843Z,50.20
2023-03-12T09:40:19.505Z,49.90
2023-03-12T09:43:13.920Z,50.10
2023-03-12T09:45:47.254Z,50.50
2023-03-12T09:48:32.011Z,49.90
2023-03-12T09:51:09.697Z,49.60
2023-03-12T09:53:47.975Z,49.90
2023-03-12T09:56:19.263Z,49.80
2023-03-12T09:58:48.597Z,50.50
2023-03-12T10:01:43.653Z,53.30
2023-03-12T10:04:16.895Z,56.30
2023-03-12T10:06:47.312Z,56.90
2023-03-12T10:09:44.480Z,57.20
2023-03-12T10:12:23.929Z,56.80
2023-03-12T10:15:15.948Z,56.00
2023-03-12T10:18:06.443Z,54.20
2023-03-12T10:21:12.499Z,52.30
2023-03-12T10:23:51.705Z,51.90
2023-03-12T10:26:26.870Z,51.00
2023-03-12T10:29:18.837Z,50.00
2023-03-12T10:31:59.666Z,50.40
2023-03-12T10:34:37.722Z,50.80
2023-03-12T10:37:14.909Z,50.70
2023-03-12T10:39:42.298Z,49.90
2023-03-12T10:42:18.702Z,50.20
2023-03-12T10:45:13.741Z,51.40
2023-03-12T10:47:45.011Z,51.90
2023-03-12T10:50:18.633Z,52.30
2023-03-12T10:52:48.395Z,53.30
2023-03-12T10:55:21.688Z,53.20
2023-03-12T10:57:49.447Z,53.20
2023-03-12T11:00:22.883Z,53.20
2023-03-12T11:03:07.379Z,53.30
2023-03-12T11:05:45.698Z,53.80
2023-03-12T11:08:37.079Z,53.80
2023-03-12T11:11:06.122Z,55.00
2023-03-12T11:13:38.333Z,56.20
2023-03-12T11:16:18.042Z,57.20
2023-03-12T11:19:04.210Z,57.80
2023-03-12T11:21:40.172Z,57.40
2023-03-12T11:24:13.360Z,56.70
2023-03-12T11:26:52.646Z,55.10
2023-03-12T11:29:31.815Z,55.10
2023-03-12T11:32:23.576Z,54.90
2023-03-12T11:34:53.678Z,53.40
2023-03-12T11:37:36.325Z,53.30
2023-03-12T11:40:17.186Z,52.80
2023-03-12T11:43:22.137Z,53.80
2023-03-12T11:46:08.829Z,53.30
2023-03-12T11:49:07.732Z,51.80
2023-03-12T11:51:43.368Z,51.30
2023-03-12T11:54:40.519Z,51.00
2023-03-12T11:57:34.034Z,52.00
2023-03-12T12:00:17.650Z,51.60
2023-03-12T12:02:53.962Z,51.80
2023-03-12T12:05:52.587Z,52.10
2023-03-12T12:08:32.110Z,51.90
2023-03-12T12:11:08.023Z,51.20
2023-03-12T12:13:47.254Z,50.60
2023-03-12T12:16:26.412Z,50.90
2023-03-12T12:19:05.882Z,50.80
2023-03-12T12:21:37.401Z,51.30
2023-03-12T12:24:18.280Z,51.30
2023-03-12T12:27:00.362Z,50.60
2023-03-12T12:29:36.270Z,50.30
2023-03-12T12:32:09.776Z,49.90
2023-03-12T12:35:24.907Z,49.30
2023-03-12T12:38:03.394Z,49.60
2023-03-12T12:41:04.924Z,52.00
2023-03-12T12:43:37.574Z,53.60
2023-03-12T12:46:18.124Z,54.10
2023-03-12T12:48:56.110Z,53.20
2023-03-12T12:51:30.733Z,52.30
2023-03-12T12:54:16.923Z,53.10
2023-03-12T12:57:13.059Z,54.70
2023-03-12T13:00:11.173Z,53.40
2023-03-12T13:02:44.592Z,52.70
2023-03-12T13:05:37.398Z,52.10
2023-03-12T13:08:06.402Z,52.70
2023-03-12T13:10:34.405Z,52.00
2023-03-12T13:13:20.593Z,51.90
2023-03-12T13:15:48.790Z,51.20
2023-03-12T13:18:26.546Z,50.50
2023-03-12T13:20:53.942Z,49.50
2023-03-12T13:24:00.002Z,48.60
2023-03-12T13:26:51.416Z,47.20
2023-03-12T13:29:40.475Z,47.60
2023-03-12T13:32:36.679Z,48.80
2023-03-12T13:35:24.295Z,48.90
2023-03-12T13:37:52.379Z,47.90
2023-03-12T13:40:31.937Z,47.60
2023-03-12T13:43:17.504Z,48.80
2023-03-12T13:45:47.988Z,50.40
2023-03-12T13:48:18.397Z,51.80
2023-03-12T13:51:02.707Z,54.40
2023-03-12T13:53:40.709Z,56.00
2023-03-12T13:56:12.470Z,57.70
2023-03-12T13:58:57.035Z,58.90
2023-03-12T14:01:29.248Z,59.70
2023-03-12T14:04:02.078Z,60.30
2023-03-12T14:06:32.425Z,60.90
2023-03-12T14:09:11.906Z,61.50
2023-03-12T14:11:52.374Z,61.80
2023-03-12T14:14:25.760Z,61.10
2023-03-12T14:16:56.731Z,60.90
2023-03-12T14:19:33.502Z,61.40
2023-03-12T14:22:04.952Z,63.20
2023-03-12T14:24:33.730Z,62.50
2023-03-12T14:27:07.195Z,63.10
2023-03-12T14:29:48.844Z,63.30
2023-03-12T14:32:22.649Z,62.60
2023-03-12T14:35:19.292Z,62.90
2023-03-12T14:37:54.719Z,63.20
2023-03-12T14:40:46.294Z,65.10
2023-03-12T14:43:28.703Z,65.10
2023-03-12T14:46:02.152Z,64.30
2023-03-12T14:48:36.104Z,64.40
2023-03-12T14:51:05.962Z,64.90
2023-03-12T14:53:35.384Z,64.20
2023-03-12T14:56:07.077Z,64.00
2023-03-12T14:58:41.863Z,64.30
2023-03-12T15:01:14.699Z,64.20
2023-03-12T15:03:49.269Z,64.00
2023-03-12T15:06:56.649Z,64.30
2023-03-12T15:09:26.636Z,64.50
2023-03-12T15:12:07.101Z,65.90
2023-03-12T15:14:41.538Z,66.50
2023-03-12T15:17:14.876Z,67.10
2023-03-12T15:19:43.070Z,68.30
2023-03-12T15:22:21.039Z,68.90
2023-03-12T15:24:48.668Z,67.60
2023-03-12T15:27:34.475Z,68.30
2023-03-12T15:30:02.624Z,68.50
2023-03-12T15:32:32.035Z,68.60
2023-03-12T15:35:00.421Z,69.20
2023-03-12T15:37:38.407Z,70.80
2023-03-12T15:40:22.550Z,71.30
2023-03-12T15:42:50.863Z,71.40
2023-03-12T15:45:39.049Z,71.40
2023-03-12T15:48:35.784Z,72.00
2023-03-12T15:51:03.232Z,72.20
2023-03-12T15:53:34.750Z,72.20
2023-03-12T15:56:20.710Z,72.00
2023-03-12T15:58:58.727Z,72.50
2023-03-12T16:01:28.376Z,72.80
2023-03-12T16:03:55.884Z,73.40
2023-03-12T16:06:26.169Z,73.50
2023-03-12T16:08:59.969Z,73.20
2023-03-12T16:11:31.102Z,73.00
2023-03-12T16:14:13.827Z,73.50
2023-03-12T16:16:41.400Z,73.80
2023-03-12T16:19:16.682Z,75.60
2023-03-12T16:21:44.768Z,75.70
2023-03-12T16:24:12.520Z,74.60
2023-03-12T16:26:50.464Z,75.10
2023-03-12T16:29:19.810Z,75.40
2023-03-12T16:31:54.588Z,75.20
2023-03-12T16:34:22.298Z,74.90
2023-03-12T16:36:49.660Z,76.10
2023-03-12T16:39:18.815Z,76.00
2023-03-12T16:41:47.363Z,76.80
2023-03-12T16:44:19.151Z,77.70
2023-03-12T16:46:46.775Z,78.80
2023-03-12T16:49:16.472Z,79.50
2023-03-12T16:51:44.039Z,79.80
2023-03-12T16:54:12.302Z,80.70
2023-03-12T16:56:44.250Z,81.30
2023-03-12T16:59:26.893Z,83.30
2023-03-12T17:01:54.535Z,85.50
2023-03-12T17:04:21.894Z,84.80
2023-03-12T17:06:49.289Z,84.40
2023-03-12T17:09:16.597Z,83.90
2023-03-12T17:11:43.927Z,82.70
2023-03-12T17:14:22.592Z,83.00
2023-03-12T17:16:50.319Z,82.60
2023-03-12T17:19:17.965Z,81.20
2023-03-12T17:21:45.593Z,80.80
2023-03-12T17:24:16.765Z,81.20
2023-03-12T17:26:45.665Z,80.70
2023-03-12T17:29:13.001Z,81.40
2023-03-12T17:31:40.469Z,82.30
2023-03-12T17:34:08.654Z,82.70
2023-03-12T17:36:40.626Z,82.70
2023-03-12T17:39:09.788Z,82.50
2023-03-12T17:41:37.064Z,82.90
2023-03-12T17:44:04.420Z,84.90
2023-03-12T17:46:32.422Z,86.30
2023-03-12T17:49:00.173Z,86.10
2023-03-12T17:51:27.531Z,86.80
2023-03-12T17:53:55.206Z,88.90
2023-03-12T17:56:22.992Z,88.80
2023-03-12T17:58:50.476Z,91.10
2023-03-12T18:01:21.135Z,89.10
2023-03-12T18:03:50.285Z,90.20
2023-03-12T18:06:19.780Z,89.20
2023-03-12T18:08:47.418Z,89.60
2023-03-12T18:11:14.777Z,89.80
2023-03-12T18:13:42.233Z,90.20
2023-03-12T18:16:10.058Z,90.40
2023-03-12T18:18:37.474Z,91.50
2023-03-12T18:21:08.708Z,90.20
2023-03-12T18:23:38.956Z,91.10
2023-03-12T18:26:06.428Z,89.30
2023-03-12T18:28:33.946Z,88.50
2023-03-12T18:31:01.426Z,88.80
2023-03-12T18:33:29.046Z,88.20
2023-03-12T18:35:56.574Z,88.30
2023-03-12T18:38:24.191Z,88.80
2023-03-12T18:40:51.599Z,89.00
2023-03-12T18:43:22.075Z,89.40
2023-03-12T18:45:50.592Z,88.90
2023-03-12T18:48:18.195Z,88.40
2023-03-12T18:50:45.654Z,88.30
2023-03-12T18:53:12.971Z,88.30
2023-03-12T18:55:40.393Z,88.90
2023-03-12T18:58:07.873Z,88.30
2023-03-12T19:00:35.114Z,88.60
2023-03-12T19:03:02.547Z,88.50
2023-03-12T19:05:30.047Z,88.30
2023-03-12T19:07:57.359Z,87.70
2023-03-12T19:10:24.892Z,88.20
2023-03-12T19:12:54.027Z,87.40
2023-03-12T19:15:24.430Z,89.10
2023-03-12T19:17:52.865Z,88.70
2023-03-12T19:20:21.654Z,88.60
2023-03-12T19:22:49.712Z,88.70
2023-03-12T19:25:17.206Z,89.00
2023-03-12T19:27:44.583Z,88.70
2023-03-12T19:30:13.999Z,88.60
2023-03-12T19:32:44.077Z,89.00
2023-03-12T19:35:13.725Z,89.10
2023-03-12T19:37:42.037Z,89.10
2023-03-12T19:40:11.362Z,89.20
2023-03-12T19:42:38.640Z,89.20
2023-03-12T19:45:06.640Z,89.40
2023-03-12T19:47:33.974Z,89.90
2023-03-12T19:50:01.946Z,89.50
2023-03-12T19:52:29.681Z,89.60
2023-03-12T19:55:06.359Z,89.90
2023-03-12T19:57:34.593Z,89.50
2023-03-12T20:00:02.218Z,89.70
2023-03-12T20:02:31.735Z,90.40
2023-03-12T20:04:59.192Z,91.20
2023-03-12T20:07:26.593Z,91.40
2023-03-12T20:09:56.960Z,91.50
2023-03-12T20:12:24.679Z,92.20
2023-03-12T20:14:52.001Z,92.30
2023-03-12T20:17:19.483Z,92.60
2023-03-12T20:19:46.879Z,92.80
2023-03-12T20:22:14.737Z,93.20
2023-03-12T20:24:42.037Z,93.40
2023-03-12T20:27:09.557Z,93.60
2023-03-12T20:29:37.209Z,93.40
2023-03-12T20:32:05.837Z,93.50
2023-03-12T20:34:33.144Z,93.10
2023-03-12T20:37:00.514Z,93.30
2023-03-12T20:39:27.959Z,93.50
2023-03-12T20:41:55.420Z,93.10
2023-03-12T20:44:23.055Z,92.80
2023-03-12T20:46:50.494Z,92.60
2023-03-12T20:49:18.008Z,92.70
2023-03-12T20:51:46.178Z,92.10
2023-03-12T20:54:13.637Z,91.90
2023-03-12T20:56:43.858Z,91.80
2023-03-12T20:59:12.595Z,92.00
2023-03-12T21:01:40.078Z,91.60
2023-03-12T21:04:07.364Z,91.50
2023-03-12T21:06:34.739Z,91.30
2023-03-12T21:09:02.533Z,91.30
2023-03-12T21:11:31.488Z,91.40
2023-03-12T21:13:58.937Z,92.40
2023-03-12T21:16:26.361Z,92.30
2023-03-12T21:18:58.101Z,92.60
2023-03-12T21:21:25.665Z,92.30
2023-03-12T21:23:53.024Z,92.20
2023-03-12T21:26:20.666Z,92.50
2023-03-12T21:28:47.973Z,92.70
2023-03-12T21:31:17.401Z,92.60
2023-03-12T21:33:44.775Z,92.50
2023-03-12T21:36:14.429Z,92.30
2023-03-12T21:38:43.259Z,92.20
2023-03-12T21:41:13.421Z,92.20
2023-03-12T21:43:41.183Z,92.10
2023-03-12T21:46:11.601Z,91.50
2023-03-12T21:48:39.886Z,91.40
2023-03-12T21:51:11.731Z,91.30
2023-03-12T21:53:39.450Z,91.50
2023-03-12T21:56:09.137Z,91.90
2023-03-12T21:58:36.798Z,92.20
2023-03-12T22:01:09.071Z,92.50
2023-03-12T22:03:37.099Z,92.80
2023-03-12T22:06:05.425Z,92.70
2023-03-12T22:08:34.270Z,93.00
2023-03-12T22:11:02.477Z,93.20
2023-03-12T22:13:30.062Z,93.20
2023-03-12T22:15:59.831Z,93.10
2023-03-12T22:18:28.828Z,93.10
2023-03-12T22:21:01.820Z,92.90
2023-03-12T22:23:29.332Z,92.80
2023-03-12T22:26:01.056Z,92.50
2023-03-12T22:28:28.459Z,92.50
2023-03-12T22:31:04.738Z,92.40
2023-03-12T22:33:32.942Z,92.40
2023-03-12T22:36:00.243Z,92.50
2023-03-12T22:38:27.657Z,92.60
2023-03-12T22:40:55.920Z,91.90
2023-03-12T22:43:25.847Z,91.90
2023-03-12T22:45:54.367Z,92.00
2023-03-12T22:48:21.644Z,92.00
2023-03-12T22:50:58.104Z,92.10
2023-03-12T22:53:25.538Z,92.30
2023-03-12T22:55:59.933Z,92.60
2023-03-12T22:58:28.036Z,92.50
2023-03-12T23:01:06.212Z,92.40
2023-03-12T23:03:35.647Z,92.50
2023-03-12T23:06:03.992Z,92.60
2023-03-12T23:08:31.396Z,92.70
2023-03-12T23:11:01.390Z,93.10
2023-03-12T23:13:30.087Z,93.10
2023-03-12T23:16:09.695Z,93.20
2023-03-12T23:18:37.403Z,92.50
2023-03-12T23:21:08.053Z,92.40
2023-03-12T23:23:37.655Z,92.10
2023-03-12T23:26:05.457Z,92.10
2023-03-12T23:28:33.227Z,92.00
2023-03-12T23:31:06.636Z,92.30
2023-03-12T23:33:35.673Z,92.20
2023-03-12T23:36:05.764Z,92.10
2023-03-12T23:38:35.768Z,92.00
2023-03-12T23:41:12.020Z,91.70
2023-03-12T23:43:39.557Z,92.00
2023-03-12T23:46:08.577Z,92.40
2023-03-12T23:48:37.325Z,92.10
2023-03-12T23:51:13.933Z,92.40
2023-03-12T23:53:43.089Z,92.60
2023-03-12T23:56:13.604Z,92.70
2023-03-12T23:58:41.179Z,92.90
